CheckWX is a tool to help pilots better visualize weather data.  It is not intended as a substitute for an official pre-flight weather briefing.

06:46:35 UTC

EGBJ METAR
Gloucestershire Airport
Staverton, United Kingdom
Current

27 mins ago

EGBJ 210620Z 00000KT CAVOK 10/09 Q1019
Observed
May-21 @ 06:20 UTC
Visibility
10,000+ meters
Flight Rules
VFR
Cloud Levels
  • Clear skies
Temperature
10°C / 50°F
Dewpoint
C / 48°F
Humidity
94%
Altimeter
30.09" Hg
Pressure
1018.92 hPa
Previous

57 mins ago

EGBJ 210550Z 00000KT CAVOK 09/08 Q1019
Observed
May-21 @ 05:50 UTC
Visibility
10,000+ meters
Flight Rules
VFR
Cloud Levels
  • Clear skies
Temperature
C / 48°F
Dewpoint
C / 46°F
Humidity
94%
Altimeter
30.09" Hg
Pressure
1018.92 hPa
Previous

12 hours ago

EGBJ 201820Z 30003KT 9999 VCSH SCT030 FEW040TCU 17/09 Q1014
Observed
May-20 @ 18:20 UTC
Wind
  • 300° at 3 KTS
Visibility
10,000+ meters
Flight Rules
VFR
Cloud Levels
  • Scattered at 3,000' AGL
  • Few at 4,000' AGL
Temperature
17°C / 63°F
Dewpoint
C / 48°F
Humidity
59%
Altimeter
29.94" Hg
Pressure
1013.92 hPa